Flight Track Log - Related Links

Times and Time Zones

All times are in EDT time to prevent confusion due to time zone crossing. See the C-FRMV flight status page for this flight to view local times or setup timezone preferences in your user account.

Time Position Orientation Groundspeed Altitude Reporting Facility
EDT Latitude Longitude Course Direction KTS MPH feet Rate Location/Type
Thu 12:00:00 AM 56.3762 -79.9236 257° West  Level FlightAware Approximate
Thu 12:01:00 AM 56.3585 -80.0369 248° West  Level FlightAware Approximate
Thu 12:02:00 AM 56.3341 -80.1464 248° West  Level FlightAware Approximate
Thu 12:03:00 AM 56.3095 -80.2556 248° West  Level FlightAware Approximate
Thu 12:04:00 AM 56.2847 -80.3647 248° West  Level FlightAware Approximate
Thu 12:05:00 AM 56.2598 -80.4736 248° West  Level FlightAware Approximate
Thu 12:06:00 AM 56.2349 -80.5824 248° West  Level FlightAware Approximate
Thu 12:07:00 AM 56.2098 -80.6910 247° West  Level FlightAware Approximate
Thu 12:07:06 AM 56.2667 -80.2667 247° West 260 299 18,000  Level Winnipeg Center
Thu 12:08:00 AM 56.1846 -80.7995 247° West  Level FlightAware Approximate
Thu 12:08:06 AM 56.2333 -80.4167 248° West 250 288 18,000  Level Winnipeg Center
Thu 12:09:00 AM 56.1592 -80.9078 247° West  Level FlightAware Approximate
Thu 12:10:00 AM 56.1339 -81.0160 247° West  Level FlightAware Approximate
Thu 12:10:00 AM 56.2301 -80.6029 248° West  Level FlightAware Approximate
Thu 12:11:00 AM 56.1084 -81.1240 247° West  Level FlightAware Approximate
Thu 12:12:00 AM 56.0828 -81.2319 247° West  Level FlightAware Approximate
Thu 12:12:18 AM 56.1500 -80.8500 247° West 190 219 18,000  Level Winnipeg Center
Thu 12:14:00 AM 56.1167 -81.1500 259° West 250 288 18,000  Level Montreal Center
Thu 12:15:00 AM 56.0833 -81.2667 243° Southwest 230 265 18,000  Level Montreal Center
Thu 12:16:00 AM 56.0500 -81.3667 239° Southwest 230 265 18,000  Level Montreal Center
Thu 12:17:00 AM 56.0523 -81.3599 247° West  Level FlightAware Approximate
Thu 12:18:00 AM 56.0031 -81.5620 247° West  Level FlightAware Approximate
Thu 12:25:00 AM 55.8195 -82.3102 247° West  Level FlightAware Approximate
Thu 12:25:56 AM 55.7833 -82.3667 246° West 310 357 18,000  Level Winnipeg Center
Thu 12:26:00 AM 55.7929 -82.4165 246° West  Level FlightAware Approximate
Thu 12:27:00 AM 55.7662 -82.5226 246° West  Level FlightAware Approximate
Thu 12:27:00 AM 55.7515 -82.4770 243° Southwest  Level Estimated
Thu 12:28:00 AM 55.7395 -82.6286 246° West  Level FlightAware Approximate
Thu 12:29:00 AM 55.7126 -82.7345 246° West  Level FlightAware Approximate
Thu 12:30:00 AM 55.6856 -82.8402 246° West  Level FlightAware Approximate
Thu 12:31:00 AM 55.6586 -82.9458 246° West  Level FlightAware Approximate
Thu 12:34:00 AM 55.5404 -83.1967 243° Southwest  Level Estimated
Thu 12:35:00 AM 55.5098 -83.2989 242° Southwest  Level Estimated
Thu 12:36:00 AM 55.4792 -83.4009 242° Southwest  Level Estimated
Thu 12:37:00 AM 55.4486 -83.5028 242° Southwest  Level Estimated
Thu 12:38:00 AM 55.4178 -83.6045 242° Southwest  Level Estimated
Thu 12:39:00 AM 55.3870 -83.7060 242° Southwest  Level Estimated
Thu 12:40:00 AM 55.3560 -83.8074 242° Southwest  Level Estimated
Thu 12:41:00 AM 55.3250 -83.9087 242° Southwest  Level Estimated
Thu 12:42:00 AM 55.2939 -84.0097 242° Southwest  Level Estimated
Thu 12:43:00 AM 55.2627 -84.1106 242° Southwest  Level Estimated
Thu 12:44:00 AM 55.2314 -84.2114 241° Southwest  Level Estimated
Thu 12:45:00 AM 55.2001 -84.3120 241° Southwest  Level Estimated
Thu 12:46:00 AM 55.1687 -84.4124 241° Southwest  Level Estimated
Thu 12:47:00 AM 55.1372 -84.5127 241° Southwest  Level Estimated
Thu 12:48:00 AM 55.1056 -84.6128 241° Southwest  Level Estimated
Thu 12:49:00 AM 55.0739 -84.7128 241° Southwest  Level Estimated
Thu 12:50:00 AM 55.0421 -84.8126 241° Southwest  Level Estimated
Thu 12:51:00 AM 55.0103 -84.9122 241° Southwest  Level Estimated
Thu 12:52:00 AM 54.9784 -85.0117 241° Southwest  Level Estimated
Thu 12:53:00 AM 54.9464 -85.1111 241° Southwest  Level Estimated
Thu 12:54:00 AM 54.9143 -85.2102 241° Southwest  Level Estimated
Thu 12:55:00 AM 54.8821 -85.3092 241° Southwest  Level Estimated
Thu 12:56:00 AM 54.8499 -85.4081 240° Southwest  Level Estimated
Thu 12:56:40 AM 54.9000 -85.6667 240° Southwest 280 322 18,000  Level Winnipeg Center
Thu 12:57:00 AM 54.8175 -85.5068 240° Southwest  Level Estimated
Thu 12:57:40 AM 54.9000 -85.7833 270° West 250 288 18,000  Level Winnipeg Center
Thu 12:58:00 AM 54.7851 -85.6053 240° Southwest  Level Estimated
Thu 12:58:40 AM 54.8500 -85.8833 229° Southwest 240 276 18,000  Level Winnipeg Center
Thu 12:59:00 AM 54.7526 -85.7037 240° Southwest  Level Estimated
Thu 12:59:40 AM 54.8500 -86.0000 270° West 240 276 18,000  Level Winnipeg Center
Thu 01:00:00 AM 54.7201 -85.8019 240° Southwest  Level Estimated
Thu 01:00:40 AM 54.8000 -86.1000 229° Southwest 240 276 18,000  Level Winnipeg Center
Thu 01:01:00 AM 54.6874 -85.9000 240° Southwest  Level Estimated
Thu 01:01:40 AM 54.7833 -86.2167 256° West 240 276 18,000  Level Winnipeg Center
Thu 01:02:40 AM 54.7500 -86.3167 240° Southwest 240 276 18,000  Level Winnipeg Center
Thu 01:03:40 AM 54.7333 -86.4167 254° West 240 276 18,000  Level Winnipeg Center
Thu 01:04:40 AM 54.6833 -86.5333 233° Southwest 240 276 18,000  Level Winnipeg Center
Thu 01:05:40 AM 54.6667 -86.6333 254° West 240 276 18,000  Level Winnipeg Center
Thu 01:06:40 AM 54.6333 -86.7500 244° Southwest 240 276 18,000  Level Winnipeg Center
Thu 01:07:40 AM 54.6167 -86.8500 254° West 240 276 18,000  Level Winnipeg Center
Thu 01:08:40 AM 54.5833 -86.9667 244° Southwest 240 276 18,000  Level Winnipeg Center
Thu 01:09:40 AM 54.5667 -87.0667 254° West 240 276 18,000  Level Winnipeg Center
Thu 01:10:40 AM 54.5333 -87.1833 244° Southwest 250 288 18,000  Level Winnipeg Center
Thu 01:11:40 AM 54.5167 -87.2833 254° West 250 288 18,000  Level Winnipeg Center
Thu 01:12:40 AM 54.4833 -87.4000 244° Southwest 250 288 18,000  Level Winnipeg Center
Thu 01:13:40 AM 54.4500 -87.5000 240° Southwest 250 288 18,000  Level Winnipeg Center
Thu 01:14:40 AM 54.4167 -87.6167 244° Southwest 240 276 18,000  Level Winnipeg Center
Thu 01:15:40 AM 54.4000 -87.7167 254° West 250 288 18,000  Level Winnipeg Center
Thu 01:16:40 AM 54.3667 -87.8333 244° Southwest 250 288 18,000  Level Winnipeg Center
Thu 01:17:40 AM 54.3500 -87.9333 254° West 250 288 18,000  Level Winnipeg Center
Thu 01:18:40 AM 54.3167 -88.0500 244° Southwest 250 288 18,000  Level Winnipeg Center
Thu 01:19:40 AM 54.3000 -88.1333 251° West 250 288 18,000  Level Winnipeg Center
Thu 01:20:40 AM 54.2500 -88.2667 237° Southwest 250 288 18,000  Level Winnipeg Center
Thu 01:21:40 AM 54.2333 -88.3500 251° West 250 288 18,000  Level Winnipeg Center
Thu 01:22:40 AM 54.2000 -88.4833 247° West 250 288 18,000  Level Winnipeg Center
Thu 01:23:40 AM 54.1667 -88.5667 236° Southwest 250 288 18,000  Level Winnipeg Center
Thu 01:24:40 AM 54.1333 -88.7000 247° West 250 288 18,000  Level Winnipeg Center
Thu 01:25:40 AM 54.1000 -88.7833 236° Southwest 250 288 18,000  Level Winnipeg Center
Thu 01:26:40 AM 54.0833 -88.9000 256° West 250 288 18,000 200 Level Winnipeg Center
Thu 01:27:40 AM 54.0500 -89.0000 240° Southwest 240 276 18,400 400 Climbing Winnipeg Center
Thu 01:28:40 AM 54.0167 -89.0833 236° Southwest 240 276 18,800 500 Climbing Winnipeg Center
Thu 01:29:40 AM 54.0000 -89.2000 256° West 230 265 19,400 550 Climbing Winnipeg Center
Thu 01:30:40 AM 53.9667 -89.3000 240° Southwest 230 265 19,900 300 Climbing Winnipeg Center
Thu 01:31:40 AM 53.9333 -89.3833 236° Southwest 230 265 20,000 50 Climbing Winnipeg Center
Thu 01:32:40 AM 53.9167 -89.5000 256° West 240 276 20,000  Level Winnipeg Center
Thu 01:33:40 AM 53.8667 -89.6000 230° Southwest 250 288 20,000  Level Winnipeg Center
Thu 01:34:40 AM 53.8500 -89.7167 256° West 250 288 20,000  Level Winnipeg Center
Thu 01:35:40 AM 53.8167 -89.8167 241° Southwest 250 288 20,000  Level Winnipeg Center
Thu 01:37:19 AM 53.7333 -89.9667 227° Southwest 260 299 20,000  Level Winnipeg Center
Thu 01:38:19 AM 53.7000 -90.0500 236° Southwest 270 311 20,000  Level Winnipeg Center
Thu 01:39:19 AM 53.6333 -90.1167 211° Southwest 260 299 20,000  Level Winnipeg Center
Thu 01:40:19 AM 53.5833 -90.2167 230° Southwest 260 299 20,000  Level Winnipeg Center
Thu 01:41:19 AM 53.5167 -90.2833 211° Southwest 260 299 20,000  Level Winnipeg Center
Thu 01:42:19 AM 53.4667 -90.3833 230° Southwest 260 299 20,000  Level Winnipeg Center
Thu 01:43:19 AM 53.4167 -90.4333 211° Southwest 260 299 20,000  Level Winnipeg Center
Thu 01:44:19 AM 53.3500 -90.5333 222° Southwest 260 299 20,000  Level Winnipeg Center
Thu 01:45:19 AM 53.3000 -90.6333 230° Southwest 260 299 20,000  Level Winnipeg Center
Thu 01:46:19 AM 53.2500 -90.6833 211° Southwest 260 299 20,000  Level Winnipeg Center
Thu 01:47:19 AM 53.2000 -90.7833 230° Southwest 260 299 20,000  Level Winnipeg Center
Thu 01:48:19 AM 53.1333 -90.8667 217° Southwest 260 299 20,000  Level Winnipeg Center
Thu 01:49:19 AM 53.0833 -90.9333 219° Southwest 260 299 20,000  Level Winnipeg Center
Thu 01:50:19 AM 53.0333 -91.0333 230° Southwest 260 299 20,000  Level Winnipeg Center
Thu 01:51:19 AM 52.9833 -91.1000 219° Southwest 260 299 20,000  Level Winnipeg Center
Thu 01:52:19 AM 52.9167 -91.1833 217° Southwest 260 299 20,000  Level Winnipeg Center
Thu 01:53:19 AM 52.8667 -91.2667 225° Southwest 260 299 20,000  Level Winnipeg Center
Thu 01:54:19 AM 52.8000 -91.3333 211° Southwest 260 299 20,000  Level Winnipeg Center
Thu 01:55:19 AM 52.7667 -91.4333 241° Southwest 260 299 20,000  Level Winnipeg Center
Thu 01:56:19 AM 52.7333 -91.5167 237° Southwest 250 288 20,000  Level Winnipeg Center
Thu 01:57:19 AM 52.6833 -91.6333 235° Southwest 250 288 20,000  Level Winnipeg Center
Thu 01:58:19 AM 52.6333 -91.7167 225° Southwest 250 288 20,000  Level Winnipeg Center
Thu 01:59:19 AM 52.6167 -91.8000 252° West 250 288 20,000  Level Winnipeg Center
Thu 02:00:19 AM 52.5667 -91.9000 231° Southwest 250 288 20,000  Level Winnipeg Center
Thu 02:01:19 AM 52.5333 -91.9833 237° Southwest 250 288 20,000  Level Winnipeg Center
Thu 02:02:19 AM 52.4833 -92.1000 235° Southwest 250 288 20,000  Level Winnipeg Center
Thu 02:03:19 AM 52.4500 -92.1833 237° Southwest 250 288 20,000  Level Winnipeg Center
Thu 02:04:19 AM 52.4000 -92.2667 225° Southwest 250 288 20,000  Level Winnipeg Center
Thu 02:05:19 AM 52.3667 -92.3500 237° Southwest 250 288 20,000  Level Winnipeg Center
Thu 02:06:19 AM 52.3167 -92.4500 231° Southwest 250 288 20,000  Level Winnipeg Center
Thu 02:07:19 AM 52.2667 -92.5500 231° Southwest 250 288 20,000  Level Winnipeg Center
Thu 02:08:19 AM 52.2500 -92.6500 255° West 250 288 20,000  Level Winnipeg Center
Thu 02:09:19 AM 52.2000 -92.7333 226° Southwest 250 288 20,000  Level Winnipeg Center
Thu 02:10:19 AM 52.1500 -92.8167 226° Southwest 260 299 20,000  Level Winnipeg Center
Thu 02:11:19 AM 52.1167 -92.9000 237° Southwest 240 276 20,000  Level Winnipeg Center
Thu 02:12:19 AM 52.0667 -92.9833 226° Southwest 250 288 20,000  Level Winnipeg Center
Thu 02:13:19 AM 52.0167 -93.0667 226° Southwest 250 288 20,000  Level Winnipeg Center
Thu 02:14:19 AM 51.9833 -93.1833 245° Southwest 250 288 20,000  Level Winnipeg Center
Thu 02:15:19 AM 51.9500 -93.2667 237° Southwest 250 288 20,000  Level Winnipeg Center
Thu 02:16:19 AM 51.9000 -93.3500 226° Southwest 250 288 20,000  Level Winnipeg Center
Thu 02:17:19 AM 51.8667 -93.4333 237° Southwest 250 288 20,000  Level Winnipeg Center
Thu 02:18:19 AM 51.8167 -93.5167 226° Southwest 250 288 20,000  Level Winnipeg Center
Thu 02:19:19 AM 51.7667 -93.6167 231° Southwest 250 288 20,000  Level Winnipeg Center
Thu 02:20:19 AM 51.7333 -93.7000 237° Southwest 250 288 20,000  Level Winnipeg Center
Thu 02:21:19 AM 51.7000 -93.8000 242° Southwest 250 288 20,000  Level Winnipeg Center
Thu 02:22:19 AM 51.6500 -93.8833 226° Southwest 250 288 20,000  Level Winnipeg Center
Thu 02:23:19 AM 51.6167 -93.9667 237° Southwest 250 288 20,000  Level Winnipeg Center
Thu 02:24:19 AM 51.5667 -94.0500 226° Southwest 250 288 20,000  Level Winnipeg Center
Thu 02:25:19 AM 51.5167 -94.1333 226° Southwest 250 288 20,000  Level Winnipeg Center
Thu 02:26:19 AM 51.4833 -94.2500 245° Southwest 240 276 20,000  Level Winnipeg Center
Thu 02:27:19 AM 51.4333 -94.3333 226° Southwest 250 288 20,000  Level Winnipeg Center
Thu 02:28:19 AM 51.3833 -94.4167 226° Southwest 240 276 20,000  Level Winnipeg Center
Thu 02:29:19 AM 51.3500 -94.5000 237° Southwest 240 276 20,000  Level Winnipeg Center
Thu 02:30:19 AM 51.3167 -94.5833 237° Southwest 250 288 20,000  Level Winnipeg Center
Thu 02:31:19 AM 51.2833 -94.6667 237° Southwest 240 276 20,000  Level Winnipeg Center
Thu 02:32:19 AM 51.2333 -94.7667 231° Southwest 250 288 20,000  Level Winnipeg Center
Thu 02:33:19 AM 51.1833 -94.8500 226° Southwest 250 288 20,000  Level Winnipeg Center
Thu 02:34:19 AM 51.1333 -94.9333 226° Southwest 250 288 20,000  Level Winnipeg Center
Thu 02:35:19 AM 51.1000 -95.0167 238° Southwest 250 288 20,000  Level Winnipeg Center
Thu 02:36:19 AM 51.0500 -95.1000 226° Southwest 250 288 20,000  Level Winnipeg Center
Thu 02:37:19 AM 51.0167 -95.1833 238° Southwest 250 288 20,000  Level Winnipeg Center
Thu 02:38:19 AM 50.9667 -95.2667 226° Southwest 250 288 20,000  Level Winnipeg Center
Thu 02:39:19 AM 50.9167 -95.3667 232° Southwest 250 288 20,000  Level Winnipeg Center
Thu 02:40:19 AM 50.8833 -95.4500 238° Southwest 250 288 20,000  Level Winnipeg Center
Thu 02:41:19 AM 50.8333 -95.5333 226° Southwest 250 288 20,000  Level Winnipeg Center
Thu 02:42:19 AM 50.7833 -95.6167 227° Southwest 250 288 20,000 -200 Level Winnipeg Center
Thu 02:43:19 AM 50.7500 -95.7000 238° Southwest 250 288 19,600 -750 Descending Winnipeg Center
Thu 02:44:19 AM 50.7167 -95.7833 238° Southwest 250 288 18,500 -1,050 Descending Winnipeg Center
Thu 02:45:19 AM 50.6667 -95.8833 232° Southwest 260 299 17,500 -1,000 Descending Winnipeg Center
Thu 02:46:19 AM 50.6167 -95.9667 227° Southwest 260 299 16,500 -900 Descending Winnipeg Center
Thu 02:47:19 AM 50.5833 -96.0500 238° Southwest 260 299 15,700 -850 Descending Winnipeg Center
Thu 02:48:19 AM 50.5333 -96.1500 232° Southwest 260 299 14,800 -800 Descending Winnipeg Center
Thu 02:49:19 AM 50.4833 -96.2333 227° Southwest 260 299 14,100 -800 Descending Winnipeg Center
Thu 02:50:19 AM 50.4333 -96.3167 227° Southwest 250 288 13,200 -800 Descending Winnipeg Center
Thu 02:51:19 AM 50.3833 -96.3833 220° Southwest 250 288 12,500 -700 Descending Winnipeg Center
Thu 02:52:19 AM 50.3500 -96.4667 238° Southwest 250 288 11,800 -750 Descending Winnipeg Center
Thu 02:53:19 AM 50.3000 -96.5667 232° Southwest 250 288 11,000 -850 Descending Winnipeg Center
Thu 02:54:19 AM 50.2500 -96.6500 227° Southwest 260 299 10,100 -900 Descending Winnipeg Center
Thu 02:55:19 AM 50.2000 -96.7333 227° Southwest 260 299 9,200 -1,100 Descending Winnipeg Center
Thu 02:56:19 AM 50.1500 -96.8167 227° Southwest 260 299 7,900 -1,250 Descending Winnipeg Center
Thu 02:57:19 AM 50.1167 -96.9167 243° Southwest 250 288 6,700 -1,350 Descending Winnipeg Center
Thu 02:58:19 AM 50.0667 -97.0000 227° Southwest 240 276 5,200 -1,350 Descending Winnipeg Center
Thu 02:59:19 AM 50.0333 -97.0667 232° Southwest 240 276 4,000 -1,000 Descending Winnipeg Center
Thu 03:00:19 AM 50.0000 -97.1500 238° Southwest 230 265 3,200 -850 Descending Winnipeg Center
Thu 03:01:19 AM 49.9667 -97.2333 238° Southwest 180 207 2,300 -1,050 Descending Winnipeg Center
Thu 03:02:19 AM 49.9167 -97.2333 180° South 160 184 1,100 -750 Descending Winnipeg Center
Thu 03:03:19 AM 49.8833 -97.2333 180° South 60 69 800 -300 Descending Winnipeg Center

Login

Don't have an account? Register now (free) for customized features, flight alerts, and more!